createdAt,value
2022-12-12T00:00:32.257Z,100697.53
2022-12-12T00:01:38.009Z,100696.69
2022-12-12T00:02:42.302Z,100703.59
2022-12-12T00:03:44.667Z,100708.00
2022-12-12T00:04:47.836Z,100700.84
2022-12-12T00:05:54.087Z,100694.31
2022-12-12T00:06:57.135Z,100707.75
2022-12-12T00:07:59.293Z,100700.00
2022-12-12T00:09:04.511Z,100700.84
2022-12-12T00:10:08.251Z,100696.69
2022-12-12T00:11:11.755Z,100708.84
2022-12-12T00:12:14.840Z,100703.34
2022-12-12T00:13:16.976Z,100706.91
2022-12-12T00:14:20.053Z,100704.19
2022-12-12T00:15:22.122Z,100706.81
2022-12-12T00:16:26.373Z,100711.91
2022-12-12T00:17:28.473Z,100704.88
2022-12-12T00:18:31.541Z,100700.47
2022-12-12T00:19:33.574Z,100697.84
2022-12-12T00:20:36.839Z,100704.75
2022-12-12T00:21:39.076Z,100702.13
2022-12-12T00:22:42.231Z,100707.34
2022-12-12T00:23:44.696Z,100705.56
2022-12-12T00:24:49.380Z,100702.81
2022-12-12T00:25:56.060Z,100694.25
2022-12-12T00:26:59.112Z,100706.16
2022-12-12T00:28:02.542Z,100700.91
2022-12-12T00:29:06.240Z,100692.22
2022-12-12T00:30:09.400Z,100696.50
2022-12-12T00:31:12.734Z,100701.75
2022-12-12T00:32:15.890Z,100699.00
2022-12-12T00:33:18.269Z,100693.75
2022-12-12T00:34:21.246Z,100705.09
2022-12-12T00:35:24.231Z,100701.50
2022-12-12T00:36:29.532Z,100697.91
2022-12-12T00:37:31.559Z,100693.50
2022-12-12T00:38:34.871Z,100697.91
2022-12-12T00:39:37.958Z,100695.28
2022-12-12T00:40:44.050Z,100692.06
2022-12-12T00:41:47.440Z,100700.66
2022-12-12T00:42:49.543Z,100693.63
2022-12-12T00:43:53.069Z,100676.28
2022-12-12T00:44:55.093Z,100693.63
2022-12-12T00:46:00.031Z,100684.47
2022-12-12T00:47:02.921Z,100686.84
2022-12-12T00:48:07.088Z,100696.13
2022-12-12T00:49:09.213Z,100695.97
2022-12-12T00:50:12.212Z,100695.16
2022-12-12T00:51:18.322Z,100693.34
2022-12-12T00:52:21.382Z,100692.41
2022-12-12T00:53:23.708Z,100698.47
2022-12-12T00:54:26.774Z,100704.56
2022-12-12T00:55:29.025Z,100715.88
2022-12-12T00:56:33.575Z,100696.69
2022-12-12T00:57:35.864Z,100691.44
2022-12-12T00:58:38.836Z,100700.16
2022-12-12T00:59:40.853Z,100694.91
2022-12-12T01:00:43.868Z,100698.47
2022-12-12T01:01:46.878Z,100697.53
2022-12-12T01:02:50.262Z,100690.16
2022-12-12T01:03:53.887Z,100693.09
2022-12-12T01:04:56.910Z,100700.84
2022-12-12T01:05:59.065Z,100698.34
2022-12-12T01:07:02.357Z,100703.59
2022-12-12T01:08:04.647Z,100695.72
2022-12-12T01:09:07.719Z,100703.59
2022-12-12T01:10:10.493Z,100696.81
2022-12-12T01:11:15.005Z,100699.31
2022-12-12T01:12:19.438Z,100700.16
2022-12-12T01:13:21.556Z,100706.34
2022-12-12T01:14:24.634Z,100708.97
2022-12-12T01:15:26.799Z,100711.59
2022-12-12T01:16:30.437Z,100715.88
2022-12-12T01:17:37.775Z,100714.19
2022-12-12T01:18:41.821Z,100707.81
2022-12-12T01:19:44.031Z,100717.94
2022-12-12T01:20:47.182Z,100719.72
2022-12-12T01:21:50.216Z,100718.06
2022-12-12T01:22:53.263Z,100717.34
2022-12-12T01:23:56.453Z,100707.13
2022-12-12T01:25:00.477Z,100713.31
2022-12-12T01:26:04.667Z,100712.59
2022-12-12T01:27:06.688Z,100717.16
2022-12-12T01:28:11.704Z,100710.75
2022-12-12T01:29:13.955Z,100713.25
2022-12-12T01:30:19.620Z,100714.59
2022-12-12T01:31:22.314Z,100715.81
2022-12-12T01:32:25.318Z,100713.69
2022-12-12T01:33:28.410Z,100722.63
2022-12-12T01:34:30.456Z,100719.44
2022-12-12T01:35:34.387Z,100711.97
2022-12-12T01:36:36.585Z,100716.63
2022-12-12T01:37:41.593Z,100717.69
2022-12-12T01:38:45.797Z,100719.72
2022-12-12T01:39:47.972Z,100720.69
2022-12-12T01:40:51.178Z,100715.84
2022-12-12T01:41:53.158Z,100711.66
2022-12-12T01:42:56.250Z,100717.88
2022-12-12T01:44:02.652Z,100714.78
2022-12-12T01:45:06.490Z,100727.41
2022-12-12T01:46:38.897Z,100708.38
2022-12-12T01:47:41.987Z,100714.09
2022-12-12T01:48:49.451Z,100713.41
2022-12-12T01:49:56.725Z,100712.47
2022-12-12T01:51:01.130Z,100681.69
2022-12-12T01:52:08.446Z,100715.09
2022-12-12T01:53:11.285Z,100718.06
2022-12-12T01:54:18.147Z,100720.00
2022-12-12T01:55:23.943Z,100719.41
2022-12-12T01:56:26.306Z,100721.31
2022-12-12T01:57:33.449Z,100711.06
2022-12-12T01:58:35.543Z,100718.22
2022-12-12T01:59:40.988Z,100721.09
2022-12-12T02:00:43.685Z,100710.84
2022-12-12T02:01:47.210Z,100719.53
2022-12-12T02:02:50.716Z,100713.69
2022-12-12T02:03:53.258Z,100715.59
2022-12-12T02:04:56.868Z,100713.22
2022-12-12T02:06:02.925Z,100719.56
2022-12-12T02:07:06.406Z,100718.00
2022-12-12T02:08:10.520Z,100698.84
2022-12-12T02:09:16.890Z,100720.00
2022-12-12T02:10:19.130Z,100712.28
2022-12-12T02:11:22.162Z,100715.16
2022-12-12T02:12:25.198Z,100717.03
2022-12-12T02:13:31.654Z,100718.00
2022-12-12T02:14:37.919Z,100712.06
2022-12-12T02:15:44.587Z,100709.69
2022-12-12T02:17:02.612Z,100710.63
2022-12-12T02:18:12.493Z,100710.88
2022-12-12T02:19:37.623Z,100718.13
2022-12-12T02:21:12.201Z,100720.97
2022-12-12T02:22:25.115Z,100723.00
2022-12-12T02:24:06.666Z,100716.22
2022-12-12T02:25:31.826Z,100721.66
2022-12-12T02:27:10.884Z,100710.63
2022-12-12T02:28:34.042Z,100715.97
2022-12-12T02:30:18.457Z,100703.13
2022-12-12T02:31:27.588Z,100706.81
2022-12-12T02:32:43.636Z,100700.88
2022-12-12T02:33:56.513Z,100708.00
2022-12-12T02:35:06.247Z,100707.16
2022-12-12T02:36:16.734Z,100706.59
2022-12-12T02:37:30.712Z,100704.91
2022-12-12T02:38:43.586Z,100713.94
2022-12-12T02:39:56.093Z,100706.19
2022-12-12T02:41:12.216Z,100703.81
2022-12-12T02:42:21.485Z,100706.66
2022-12-12T02:43:33.598Z,100706.78
2022-12-12T02:44:42.278Z,100712.97
2022-12-12T02:45:49.586Z,100714.75
2022-12-12T02:47:01.309Z,100714.03
2022-12-12T02:48:12.142Z,100711.53
2022-12-12T02:49:21.259Z,100716.75
2022-12-12T02:50:26.851Z,100702.13
2022-12-12T02:51:30.635Z,100712.59
2022-12-12T02:52:33.837Z,100711.78
2022-12-12T02:53:35.867Z,100708.44
2022-12-12T02:54:39.224Z,100708.44
2022-12-12T02:55:41.216Z,100715.56
2022-12-12T02:56:48.459Z,100705.34
2022-12-12T02:57:52.016Z,100703.69
2022-12-12T02:58:55.105Z,100707.22
2022-12-12T03:00:00.614Z,100710.78
2022-12-12T03:01:17.297Z,100717.91
2022-12-12T03:02:47.160Z,100714.47
2022-12-12T03:04:13.327Z,100711.97
2022-12-12T03:06:00.735Z,100717.31
2022-12-12T03:07:29.657Z,100716.47
2022-12-12T03:08:47.250Z,100725.25
2022-12-12T03:10:02.099Z,100710.38
2022-12-12T03:11:09.266Z,100713.25
2022-12-12T03:12:18.075Z,100725.38
2022-12-12T03:13:32.045Z,100717.53
2022-12-12T03:14:47.281Z,100710.75
2022-12-12T03:15:57.976Z,100714.56
2022-12-12T03:17:02.168Z,100723.81
2022-12-12T03:18:21.810Z,100717.78
2022-12-12T03:19:29.207Z,100718.69
2022-12-12T03:20:39.940Z,100716.09
2022-12-12T03:21:47.233Z,100710.13
2022-12-12T03:22:55.902Z,100708.38
2022-12-12T03:24:05.776Z,100704.09
2022-12-12T03:25:15.322Z,100717.16
2022-12-12T03:26:24.779Z,100714.56
2022-12-12T03:27:33.080Z,100712.75
2022-12-12T03:28:39.721Z,100705.03
2022-12-12T03:29:47.810Z,100710.50
2022-12-12T03:30:55.603Z,100706.84
2022-12-12T03:32:05.130Z,100707.75
2022-12-12T03:33:16.601Z,100717.41
2022-12-12T03:34:24.196Z,100712.19
2022-12-12T03:35:30.518Z,100714.06
2022-12-12T03:36:38.025Z,100708.00
2022-12-12T03:37:46.782Z,100710.63
2022-12-12T03:38:57.318Z,100705.50
2022-12-12T03:40:03.621Z,100704.91
2022-12-12T03:41:09.967Z,100710.72
2022-12-12T03:42:20.138Z,100712.50
2022-12-12T03:43:26.167Z,100710.84
2022-12-12T03:44:39.761Z,100707.38
2022-12-12T03:45:52.502Z,100715.34
2022-12-12T03:46:59.260Z,100722.34
2022-12-12T03:48:08.268Z,100724.94
2022-12-12T03:49:15.929Z,100718.91
2022-12-12T03:50:22.543Z,100718.91
2022-12-12T03:51:29.255Z,100689.03
2022-12-12T03:52:35.911Z,100728.50
2022-12-12T03:53:44.798Z,100726.88
2022-12-12T03:54:52.990Z,100719.94
2022-12-12T03:55:58.104Z,100720.78
2022-12-12T03:57:06.395Z,100724.34
2022-12-12T03:58:14.807Z,100731.34
2022-12-12T03:59:24.055Z,100729.56
2022-12-12T04:00:33.738Z,100732.28
2022-12-12T04:01:44.413Z,100733.13
2022-12-12T04:02:52.940Z,100728.13
2022-12-12T04:04:03.165Z,100733.97
2022-12-12T04:05:15.963Z,100734.09
2022-12-12T04:06:27.447Z,100740.13
2022-12-12T04:07:34.519Z,100740.13
2022-12-12T04:08:38.055Z,100732.28
2022-12-12T04:09:59.444Z,100733.13
2022-12-12T04:11:25.991Z,100735.84
2022-12-12T04:12:56.363Z,100737.38
2022-12-12T04:14:09.089Z,100743.34
2022-12-12T04:15:22.351Z,100733.00
2022-12-12T04:16:29.017Z,100736.47
2022-12-12T04:17:37.867Z,100740.84
2022-12-12T04:18:50.163Z,100741.81
2022-12-12T04:20:16.879Z,100741.91
2022-12-12T04:21:51.846Z,100742.72
2022-12-12T04:23:16.754Z,100744.53
2022-12-12T04:24:26.201Z,100742.84
2022-12-12T04:25:56.634Z,100744.66
2022-12-12T04:27:05.994Z,100768.94
2022-12-12T04:28:08.193Z,100745.44
2022-12-12T04:29:20.847Z,100741.91
2022-12-12T04:30:24.826Z,100747.13
2022-12-12T04:31:29.206Z,100743.69
2022-12-12T04:32:37.156Z,100744.53
2022-12-12T04:33:44.164Z,100750.69
2022-12-12T04:34:52.321Z,100753.28
2022-12-12T04:35:57.748Z,100745.56
2022-12-12T04:37:04.032Z,100743.91
2022-12-12T04:38:10.567Z,100750.06
2022-12-12T04:39:17.966Z,100749.25
2022-12-12T04:40:26.221Z,100748.41
2022-12-12T04:41:31.174Z,100748.53
2022-12-12T04:42:38.898Z,100748.63
2022-12-12T04:43:43.584Z,100751.25
2022-12-12T04:44:48.410Z,100752.41
2022-12-12T04:45:54.878Z,100736.47
2022-12-12T04:47:01.717Z,100753.97
2022-12-12T04:48:06.921Z,100743.72
2022-12-12T04:49:16.483Z,100756.69
2022-12-12T04:50:21.068Z,100751.47
2022-12-12T04:51:29.104Z,100752.41
2022-12-12T04:52:35.317Z,100745.03
2022-12-12T04:53:43.267Z,100755.97
2022-12-12T04:54:50.626Z,100749.06
2022-12-12T04:55:57.164Z,100752.63
2022-12-12T04:57:03.315Z,100748.44
2022-12-12T04:58:07.315Z,100750.97
2022-12-12T04:59:10.583Z,100751.91
2022-12-12T05:00:15.246Z,100757.13
2022-12-12T05:01:23.342Z,100761.63
2022-12-12T05:02:34.291Z,100757.34
2022-12-12T05:03:44.028Z,100758.31
2022-12-12T05:04:54.617Z,100751.75
2022-12-12T05:06:00.390Z,100761.00
2022-12-12T05:07:08.449Z,100754.00
2022-12-12T05:08:17.202Z,100757.59
2022-12-12T05:09:21.295Z,100756.63
2022-12-12T05:10:24.448Z,100754.97
2022-12-12T05:11:26.621Z,100754.13
2022-12-12T05:12:29.628Z,100747.13
2022-12-12T05:13:33.811Z,100754.97
2022-12-12T05:14:36.827Z,100750.56
2022-12-12T05:15:44.727Z,100748.06
2022-12-12T05:16:51.138Z,100754.97
2022-12-12T05:18:00.073Z,100761.97
2022-12-12T05:19:02.249Z,100756.84
2022-12-12T05:20:06.045Z,100760.31
2022-12-12T05:21:08.052Z,100756.13
2022-12-12T05:22:11.094Z,100757.06
2022-12-12T05:23:14.796Z,100750.28
2022-12-12T05:24:17.850Z,100754.59
2022-12-12T05:25:20.430Z,100749.47
2022-12-12T05:26:27.033Z,100750.41
2022-12-12T05:27:29.093Z,100753.00
2022-12-12T05:28:32.121Z,100767.81
2022-12-12T05:29:35.200Z,100757.50
2022-12-12T05:30:37.410Z,100756.69
2022-12-12T05:31:40.499Z,100752.72
2022-12-12T05:32:42.635Z,100752.50
2022-12-12T05:33:46.411Z,100754.59
2022-12-12T05:34:48.530Z,100764.00
2022-12-12T05:35:51.590Z,100754.59
2022-12-12T05:36:54.677Z,100762.44
2022-12-12T05:37:57.719Z,100759.94
2022-12-12T05:39:01.122Z,100764.31
2022-12-12T05:40:04.860Z,100765.28
2022-12-12T05:41:06.927Z,100766.94
2022-12-12T05:42:09.961Z,100767.88
2022-12-12T05:43:12.050Z,100763.63
2022-12-12T05:44:15.062Z,100771.44
2022-12-12T05:45:17.122Z,100768.84
2022-12-12T05:46:20.215Z,100761.00
2022-12-12T05:47:22.245Z,100764.53
2022-12-12T05:48:25.280Z,100770.72
2022-12-12T05:49:27.398Z,100767.38
2022-12-12T05:50:30.389Z,100763.00
2022-12-12T05:51:32.373Z,100763.81
2022-12-12T05:52:36.809Z,100766.41
2022-12-12T05:53:42.823Z,100769.88
2022-12-12T05:54:47.793Z,100771.53
2022-12-12T05:55:50.759Z,100772.38
2022-12-12T05:56:53.776Z,100766.31
2022-12-12T05:57:55.768Z,100766.22
2022-12-12T05:58:58.896Z,100772.25
2022-12-12T06:00:01.038Z,100770.50
2022-12-12T06:01:05.625Z,100760.28
2022-12-12T06:02:07.744Z,100765.16
2022-12-12T06:03:10.852Z,100766.00
2022-12-12T06:04:13.893Z,100769.41
2022-12-12T06:05:16.220Z,100772.66
2022-12-12T06:06:20.106Z,100768.16
2022-12-12T06:07:22.160Z,100769.00
2022-12-12T06:08:25.419Z,100774.00
2022-12-12T06:09:28.855Z,100774.84
2022-12-12T06:10:33.375Z,100763.66
2022-12-12T06:11:36.437Z,100761.47
2022-12-12T06:12:38.595Z,100767.41
2022-12-12T06:13:41.620Z,100766.44
2022-12-12T06:14:43.631Z,100770.75
2022-12-12T06:15:46.669Z,100768.94
2022-12-12T06:16:48.758Z,100772.28
2022-12-12T06:17:52.385Z,100770.53
2022-12-12T06:18:55.554Z,100771.34
2022-12-12T06:19:58.613Z,100778.22
2022-12-12T06:21:06.202Z,100770.41
2022-12-12T06:22:08.265Z,100778.13
2022-12-12T06:23:11.281Z,100772.06
2022-12-12T06:24:13.537Z,100782.38
2022-12-12T06:25:16.563Z,100775.50
2022-12-12T06:26:21.451Z,100779.88
2022-12-12T06:27:24.507Z,100768.75
2022-12-12T06:28:27.524Z,100775.75
2022-12-12T06:29:29.691Z,100775.97
2022-12-12T06:30:32.788Z,100782.09
2022-12-12T06:31:35.810Z,100781.28
2022-12-12T06:32:38.849Z,100789.22
2022-12-12T06:33:43.397Z,100784.09
2022-12-12T06:34:45.441Z,100785.91
2022-12-12T06:35:58.941Z,100788.63
2022-12-12T06:37:01.929Z,100794.66
2022-12-12T06:38:04.939Z,100793.00
2022-12-12T06:39:07.430Z,100795.59
2022-12-12T06:40:11.829Z,100799.88
2022-12-12T06:41:15.861Z,100800.72
2022-12-12T06:42:20.310Z,100794.44
2022-12-12T06:43:22.494Z,100793.50
2022-12-12T06:44:25.500Z,100797.78
2022-12-12T06:45:28.527Z,100802.75
2022-12-12T06:46:30.912Z,100787.09
2022-12-12T06:47:34.017Z,100793.16
2022-12-12T06:48:37.439Z,100781.28
2022-12-12T06:49:40.548Z,100787.59
2022-12-12T06:50:44.108Z,100791.78
2022-12-12T06:51:48.887Z,100796.91
2022-12-12T06:52:51.955Z,100792.41
2022-12-12T06:53:54.240Z,100764.19
2022-12-12T06:54:57.239Z,100792.28
2022-12-12T06:56:00.374Z,100793.13
2022-12-12T06:57:03.417Z,100793.94
2022-12-12T06:58:06.834Z,100800.84
2022-12-12T06:59:12.094Z,100790.63
2022-12-12T07:00:16.353Z,100801.66
2022-12-12T07:01:20.470Z,100796.44
2022-12-12T07:02:29.608Z,100799.28
2022-12-12T07:03:33.182Z,100800.84
2022-12-12T07:04:36.187Z,100799.41
2022-12-12T07:05:39.215Z,100800.84
2022-12-12T07:06:41.571Z,100794.78
2022-12-12T07:07:44.632Z,100812.22
2022-12-12T07:08:46.866Z,100792.94
2022-12-12T07:09:49.907Z,100798.34
2022-12-12T07:10:52.001Z,100798.34
2022-12-12T07:11:55.094Z,100804.50
2022-12-12T07:12:58.421Z,100805.47
2022-12-12T07:14:03.802Z,100802.97
2022-12-12T07:15:07.552Z,100801.28
2022-12-12T07:16:09.755Z,100801.28
2022-12-12T07:17:12.871Z,100803.06
2022-12-12T07:18:16.845Z,100802.34
2022-12-12T07:19:19.924Z,100811.94
2022-12-12T07:20:23.080Z,100797.78
2022-12-12T07:21:25.696Z,100810.50
2022-12-12T07:22:29.125Z,100806.56
2022-12-12T07:23:31.297Z,100814.28
2022-12-12T07:24:34.333Z,100815.22
2022-12-12T07:25:38.565Z,100809.28
2022-12-12T07:26:41.617Z,100814.59
2022-12-12T07:27:43.786Z,100818.25
2022-12-12T07:28:47.276Z,100810.66
2022-12-12T07:29:51.861Z,100812.53
2022-12-12T07:30:54.136Z,100821.41
2022-12-12T07:31:57.415Z,100810.47
2022-12-12T07:32:59.444Z,100832.88
2022-12-12T07:34:02.476Z,100818.31
2022-12-12T07:35:06.093Z,100820.19
2022-12-12T07:36:08.615Z,100818.50
2022-12-12T07:37:11.680Z,100820.28
2022-12-12T07:38:13.703Z,100825.63
2022-12-12T07:39:20.649Z,100815.47
2022-12-12T07:40:23.425Z,100811.22
2022-12-12T07:41:26.495Z,100825.63
2022-12-12T07:42:29.546Z,100823.00
2022-12-12T07:43:33.224Z,100821.31
2022-12-12T07:44:37.094Z,100822.28
2022-12-12T07:45:44.255Z,100815.38
2022-12-12T07:46:47.252Z,100813.72
2022-12-12T07:47:50.312Z,100813.72
2022-12-12T07:48:54.690Z,100823.41
2022-12-12T07:49:57.708Z,100815.47
2022-12-12T07:51:01.166Z,100818.31
2022-12-12T07:52:04.911Z,100820.81
2022-12-12T07:53:07.667Z,100821.88
2022-12-12T07:54:10.675Z,100816.66
2022-12-12T07:55:14.035Z,100827.91
2022-12-12T07:56:18.771Z,100825.28
2022-12-12T07:57:21.832Z,100824.47
2022-12-12T07:58:24.879Z,100822.78
2022-12-12T07:59:27.020Z,100820.19
2022-12-12T08:00:30.067Z,100827.09
2022-12-12T08:01:35.025Z,100828.84
2022-12-12T08:02:37.082Z,100827.09
2022-12-12T08:03:40.341Z,100824.47
2022-12-12T08:04:43.402Z,100829.59
2022-12-12T08:05:45.477Z,100824.38
2022-12-12T08:06:49.985Z,100826.03
2022-12-12T08:07:53.749Z,100832.09
2022-12-12T08:08:57.051Z,100825.09
2022-12-12T08:09:59.050Z,100819.88
2022-12-12T08:11:06.520Z,100803.50
2022-12-12T08:12:09.585Z,100832.81
2022-12-12T08:13:11.970Z,100830.22
2022-12-12T08:14:15.135Z,100825.81
2022-12-12T08:15:19.185Z,100825.72
2022-12-12T08:16:24.412Z,100829.16
2022-12-12T08:17:28.949Z,100827.38
2022-12-12T08:18:32.115Z,100833.34
2022-12-12T08:19:35.679Z,100826.31
2022-12-12T08:20:40.912Z,100828.84
2022-12-12T08:21:44.611Z,100835.72
2022-12-12T08:22:47.619Z,100830.41
2022-12-12T08:23:50.612Z,100829.53
2022-12-12T08:24:53.608Z,100835.38
2022-12-12T08:25:56.524Z,100825.78
2022-12-12T08:26:59.635Z,100836.00
2022-12-12T08:28:01.757Z,100844.56
2022-12-12T08:29:05.337Z,100819.34
2022-12-12T08:30:10.170Z,100830.38
2022-12-12T08:31:15.793Z,100836.31
2022-12-12T08:32:18.826Z,100838.00
2022-12-12T08:33:23.219Z,100833.50
2022-12-12T08:34:26.419Z,100834.09
2022-12-12T08:35:29.554Z,100826.19
2022-12-12T08:36:34.909Z,100839.13
2022-12-12T08:37:36.897Z,100835.44
2022-12-12T08:38:40.042Z,100835.31
2022-12-12T08:39:42.030Z,100834.28
2022-12-12T08:40:45.762Z,100842.00
2022-12-12T08:41:50.939Z,100839.75
2022-12-12T08:42:53.994Z,100837.41
2022-12-12T08:43:57.022Z,100843.44
2022-12-12T08:44:59.012Z,100837.19
2022-12-12T08:46:02.415Z,100840.63
2022-12-12T08:47:05.747Z,100843.13
2022-12-12T08:48:09.834Z,100842.19
2022-12-12T08:49:16.276Z,100841.34
2022-12-12T08:50:20.209Z,100841.03
2022-12-12T08:51:24.278Z,100850.41
2022-12-12T08:52:27.379Z,100844.16
2022-12-12T08:53:30.833Z,100848.41
2022-12-12T08:54:34.085Z,100850.78
2022-12-12T08:55:37.330Z,100849.13
2022-12-12T08:56:41.081Z,100848.19
2022-12-12T08:57:44.323Z,100854.75
2022-12-12T08:58:46.736Z,100852.03
2022-12-12T08:59:49.780Z,100857.97
2022-12-12T09:00:53.120Z,100855.13
2022-12-12T09:01:57.195Z,100859.31
2022-12-12T09:03:00.632Z,100865.16
2022-12-12T09:04:03.967Z,100863.25
2022-12-12T09:05:09.280Z,100855.22
2022-12-12T09:06:13.027Z,100861.03
2022-12-12T09:07:16.117Z,100865.22
2022-12-12T09:08:19.356Z,100862.38
2022-12-12T09:09:22.678Z,100864.88
2022-12-12T09:10:25.738Z,100862.88
2022-12-12T09:11:28.831Z,100856.72
2022-12-12T09:12:35.610Z,100854.09
2022-12-12T09:13:41.470Z,100858.84
2022-12-12T09:14:44.476Z,100863.84
2022-12-12T09:15:51.592Z,100860.19
2022-12-12T09:16:56.794Z,100862.47
2022-12-12T09:17:59.826Z,100865.56
2022-12-12T09:19:03.178Z,100865.34
2022-12-12T09:20:08.595Z,100866.06
2022-12-12T09:21:10.608Z,100862.28
2022-12-12T09:22:13.707Z,100870.81
2022-12-12T09:23:16.814Z,100875.84
2022-12-12T09:24:19.795Z,100871.19
2022-12-12T09:25:22.863Z,100871.09
2022-12-12T09:26:25.879Z,100871.81
2022-12-12T09:27:28.148Z,100866.38
2022-12-12T09:28:31.165Z,100877.53
2022-12-12T09:29:34.232Z,100869.56
2022-12-12T09:30:37.285Z,100877.19
2022-12-12T09:31:40.446Z,100870.03
2022-12-12T09:32:45.332Z,100874.47
2022-12-12T09:33:49.027Z,100872.47
2022-12-12T09:34:53.212Z,100874.00
2022-12-12T09:36:02.027Z,100876.38
2022-12-12T09:37:05.151Z,100865.78
2022-12-12T09:38:13.965Z,100874.34
2022-12-12T09:39:17.737Z,100868.06
2022-12-12T09:40:28.640Z,100870.56
2022-12-12T09:41:31.842Z,100880.06
2022-12-12T09:42:35.628Z,100845.47
2022-12-12T09:43:45.236Z,100872.94
2022-12-12T09:44:49.461Z,100871.91
2022-12-12T09:45:53.071Z,100874.50
2022-12-12T09:47:00.580Z,100871.78
2022-12-12T09:48:05.753Z,100874.28
2022-12-12T09:49:15.261Z,100872.38
2022-12-12T09:50:25.584Z,100875.69
2022-12-12T09:51:30.175Z,100871.19
2022-12-12T09:52:36.108Z,100864.63
2022-12-12T09:53:41.248Z,100871.66
2022-12-12T09:54:44.645Z,100873.22
2022-12-12T09:55:56.041Z,100870.47
2022-12-12T09:57:12.207Z,100879.75
2022-12-12T09:58:24.616Z,100876.09
2022-12-12T09:59:35.057Z,100883.69
2022-12-12T10:00:44.606Z,100880.94
2022-12-12T10:02:01.229Z,100861.91
2022-12-12T10:03:18.074Z,100871.06
2022-12-12T10:04:29.514Z,100871.91
2022-12-12T10:05:40.891Z,100870.03
2022-12-12T10:06:52.188Z,100877.63
2022-12-12T10:08:02.777Z,100875.72
2022-12-12T10:09:26.982Z,100875.50
2022-12-12T10:10:33.686Z,100871.91
2022-12-12T10:11:54.829Z,100875.72
2022-12-12T10:12:59.344Z,100870.72
2022-12-12T10:14:04.999Z,100878.47
2022-12-12T10:15:16.304Z,100884.75
2022-12-12T10:16:19.504Z,100878.59
2022-12-12T10:17:27.678Z,100872.63
2022-12-12T10:18:35.417Z,100869.03
2022-12-12T10:19:47.332Z,100878.72
2022-12-12T10:20:53.310Z,100877.88
2022-12-12T10:22:03.348Z,100879.63
2022-12-12T10:23:14.392Z,100874.53
2022-12-12T10:24:28.433Z,100878.84
2022-12-12T10:25:42.657Z,100877.03
2022-12-12T10:26:44.885Z,100877.63
2022-12-12T10:27:49.723Z,100872.38
2022-12-12T10:28:55.426Z,100879.31
2022-12-12T10:30:05.814Z,100876.56
2022-12-12T10:31:23.984Z,100877.38
2022-12-12T10:32:37.348Z,100873.69
2022-12-12T10:33:52.352Z,100873.56
2022-12-12T10:35:04.300Z,100869.06
2022-12-12T10:36:15.144Z,100870.59
2022-12-12T10:37:31.232Z,100870.47
2022-12-12T10:38:52.148Z,100863.31
2022-12-12T10:40:05.188Z,100869.66
2022-12-12T10:41:16.489Z,100866.69
2022-12-12T10:42:28.871Z,100882.88
2022-12-12T10:43:39.096Z,100867.38
2022-12-12T10:45:00.936Z,100868.22
2022-12-12T10:46:19.276Z,100865.72
2022-12-12T10:47:21.543Z,100862.97
2022-12-12T10:48:24.660Z,100861.06
2022-12-12T10:49:27.936Z,100863.56
2022-12-12T10:50:34.848Z,100869.53
2022-12-12T10:51:37.977Z,100859.88
2022-12-12T10:52:42.386Z,100861.53
2022-12-12T10:53:45.290Z,100859.75
2022-12-12T10:54:52.920Z,100860.47
2022-12-12T10:55:59.959Z,100856.06
2022-12-12T10:57:18.033Z,100858.69
2022-12-12T10:58:26.260Z,100854.16
2022-12-12T10:59:28.666Z,100853.19
2022-12-12T11:00:33.755Z,100855.69
2022-12-12T11:03:13.661Z,100846.75
2022-12-12T11:04:16.986Z,100847.34
2022-12-12T11:05:24.789Z,100843.78
2022-12-12T11:06:31.504Z,100845.31
2022-12-12T11:07:37.881Z,100848.53
2022-12-12T11:08:53.849Z,100844.94
2022-12-12T11:10:01.931Z,100843.88
2022-12-12T11:11:08.643Z,100847.19
2022-12-12T11:12:15.665Z,100850.66
2022-12-12T11:13:18.908Z,100841.38
2022-12-12T11:14:28.034Z,100843.63
2022-12-12T11:15:40.597Z,100848.03
2022-12-12T11:16:45.411Z,100853.28
2022-12-12T11:17:50.266Z,100846.38
2022-12-12T11:19:04.407Z,100854.94
2022-12-12T11:20:10.673Z,100850.53
2022-12-12T11:21:15.112Z,100850.28
2022-12-12T11:22:18.234Z,100856.09
2022-12-12T11:23:25.928Z,100849.22
2022-12-12T11:24:33.360Z,100858.38
2022-12-12T11:25:37.615Z,100853.00
2022-12-12T11:26:46.400Z,100850.25
2022-12-12T11:27:49.742Z,100851.91
2022-12-12T11:28:57.257Z,100851.78
2022-12-12T11:30:02.621Z,100850.72
2022-12-12T11:31:08.227Z,100854.06
2022-12-12T11:32:14.315Z,100850.47
2022-12-12T11:33:20.918Z,100851.19
2022-12-12T11:34:27.338Z,100845.94
2022-12-12T11:35:35.901Z,100851.06
2022-12-12T11:36:41.552Z,100839.59
2022-12-12T11:37:49.427Z,100830.34
2022-12-12T11:38:55.957Z,100839.25
2022-12-12T11:39:59.374Z,100835.53
2022-12-12T11:41:05.786Z,100832.66
2022-12-12T11:42:19.467Z,100834.06
2022-12-12T11:43:26.339Z,100858.38
2022-12-12T11:44:34.496Z,100838.00
2022-12-12T11:45:37.605Z,100838.66
2022-12-12T11:46:40.889Z,100835.47
2022-12-12T11:47:44.668Z,100837.47
2022-12-12T11:48:57.752Z,100835.56
2022-12-12T11:50:04.969Z,100834.47
2022-12-12T11:51:12.733Z,100844.94
2022-12-12T11:52:20.866Z,100838.25
2022-12-12T11:53:23.929Z,100837.97
2022-12-12T11:54:31.034Z,100841.31
2022-12-12T11:55:44.408Z,100839.28
2022-12-12T11:56:54.856Z,100839.84
2022-12-12T11:58:11.905Z,100844.84
2022-12-12T11:59:38.236Z,100835.75
2022-12-12T12:00:46.964Z,100838.97
2022-12-12T12:02:00.749Z,100837.84
2022-12-12T12:03:29.806Z,100841.91
2022-12-12T12:04:53.225Z,100832.91
2022-12-12T12:06:15.123Z,100832.78
2022-12-12T12:07:39.180Z,100834.47
2022-12-12T12:09:03.891Z,100836.13
2022-12-12T12:10:18.336Z,100832.41
2022-12-12T12:11:32.675Z,100841.09
2022-12-12T12:12:50.718Z,100835.03
2022-12-12T12:14:09.452Z,100834.91
2022-12-12T12:15:28.376Z,100840.03
2022-12-12T12:16:40.934Z,100829.53
2022-12-12T12:18:01.088Z,100834.78
2022-12-12T12:19:12.731Z,100832.28
2022-12-12T12:20:25.582Z,100829.66
2022-12-12T12:21:37.028Z,100835.84
2022-12-12T12:22:49.881Z,100842.78
2022-12-12T12:24:04.273Z,100838.34
2022-12-12T12:25:32.821Z,100837.66
2022-12-12T12:26:44.311Z,100839.44
2022-12-12T12:27:57.686Z,100839.31
2022-12-12T12:29:28.911Z,100836.69
2022-12-12T12:30:40.375Z,100833.09
2022-12-12T12:31:53.797Z,100832.28
2022-12-12T12:33:24.813Z,100822.59
2022-12-12T12:34:32.683Z,100819.84
2022-12-12T12:35:50.788Z,100827.47
2022-12-12T12:37:09.248Z,100828.84
2022-12-12T12:38:24.759Z,100820.72
2022-12-12T12:39:47.015Z,100823.09
2022-12-12T12:41:07.850Z,100822.72
2022-12-12T12:42:23.673Z,100815.53
2022-12-12T12:43:46.730Z,100816.91
2022-12-12T12:44:56.205Z,100822.03